createdAt,value
2017-10-02T00:02:06.526Z,27.20
2017-10-02T00:04:34.331Z,26.97
2017-10-02T00:07:02.086Z,29.20
2017-10-02T00:09:30.607Z,34.70
2017-10-02T00:11:58.427Z,34.10
2017-10-02T00:14:26.256Z,34.83
2017-10-02T00:16:54.058Z,38.00
2017-10-02T00:19:22.632Z,36.40
2017-10-02T00:21:50.385Z,42.93
2017-10-02T00:24:18.128Z,41.13
2017-10-02T00:26:45.886Z,42.03
2017-10-02T00:29:13.723Z,41.33
2017-10-02T00:31:41.534Z,37.10
2017-10-02T00:34:09.335Z,39.30
2017-10-02T00:36:37.125Z,40.30
2017-10-02T00:39:05.717Z,41.53
2017-10-02T00:41:33.458Z,40.37
2017-10-02T00:44:01.308Z,40.30
2017-10-02T00:46:29.121Z,42.33
2017-10-02T00:48:56.965Z,43.03
2017-10-02T00:51:24.906Z,40.83
2017-10-02T00:53:52.739Z,44.87
2017-10-02T00:56:20.501Z,44.73
2017-10-02T00:58:48.297Z,45.77
2017-10-02T01:01:16.049Z,44.03
2017-10-02T01:03:43.809Z,43.47
2017-10-02T01:06:11.587Z,48.30
2017-10-02T01:08:39.415Z,42.40
2017-10-02T01:11:07.256Z,44.63
2017-10-02T01:13:35.154Z,42.03
2017-10-02T01:16:03.766Z,43.30
2017-10-02T01:18:31.574Z,47.53
2017-10-02T01:20:59.420Z,41.77
2017-10-02T01:23:27.177Z,44.43
2017-10-02T01:25:54.925Z,47.80
2017-10-02T01:28:22.825Z,44.33
2017-10-02T01:30:50.578Z,44.57
2017-10-02T01:33:18.340Z,43.13
2017-10-02T01:35:46.156Z,48.53
2017-10-02T01:38:13.902Z,45.30
2017-10-02T01:40:41.678Z,46.30
2017-10-02T01:43:09.507Z,43.33
2017-10-02T01:45:37.296Z,41.53
2017-10-02T01:48:05.095Z,44.23
2017-10-02T01:50:32.842Z,42.17
2017-10-02T01:53:00.644Z,43.23
2017-10-02T01:55:29.303Z,46.50
2017-10-02T01:57:57.047Z,48.53
2017-10-02T02:00:24.868Z,42.73
2017-10-02T02:02:53.475Z,43.63
2017-10-02T02:05:21.311Z,42.13
2017-10-02T02:07:49.133Z,52.97
2017-10-02T02:10:16.894Z,41.43
2017-10-02T02:12:44.676Z,41.20
2017-10-02T02:15:12.475Z,44.83
2017-10-02T02:17:40.303Z,39.60
2017-10-02T02:20:08.054Z,44.63
2017-10-02T02:22:35.864Z,41.50
2017-10-02T02:25:03.635Z,47.07
2017-10-02T02:27:31.459Z,45.87
2017-10-02T02:29:59.218Z,45.50
2017-10-02T02:32:27.129Z,44.97
2017-10-02T02:34:54.883Z,42.03
2017-10-02T02:37:22.691Z,44.23
2017-10-02T02:39:50.470Z,42.67
2017-10-02T02:42:18.236Z,42.13
2017-10-02T02:44:45.974Z,42.30
2017-10-02T02:47:13.714Z,45.13
2017-10-02T02:49:41.470Z,41.67
2017-10-02T02:52:09.216Z,43.90
2017-10-02T02:54:37.128Z,47.63
2017-10-02T02:57:04.939Z,41.87
2017-10-02T02:59:32.722Z,49.77
2017-10-02T03:02:00.496Z,48.77
2017-10-02T03:04:28.294Z,41.17
2017-10-02T03:06:56.103Z,43.13
2017-10-02T03:09:24.677Z,39.67
2017-10-02T03:11:52.429Z,42.23
2017-10-02T03:14:20.181Z,42.53
2017-10-02T03:16:47.970Z,46.40
2017-10-02T03:19:15.830Z,42.83
2017-10-02T03:21:43.637Z,39.13
2017-10-02T03:24:12.282Z,42.17
2017-10-02T03:26:40.029Z,45.13
2017-10-02T03:29:07.797Z,48.03
2017-10-02T03:31:35.635Z,41.73
2017-10-02T03:34:03.373Z,42.40
2017-10-02T03:36:31.223Z,48.63
2017-10-02T03:38:59.006Z,41.03
2017-10-02T03:41:26.809Z,44.57
2017-10-02T03:43:54.630Z,41.67
2017-10-02T03:46:22.443Z,48.97
2017-10-02T03:48:50.251Z,44.93
2017-10-02T03:51:18.000Z,47.50
2017-10-02T03:53:45.848Z,43.90
2017-10-02T03:56:14.396Z,41.93
2017-10-02T03:58:42.308Z,49.10
2017-10-02T04:01:10.148Z,47.93
2017-10-02T04:03:37.935Z,50.30
2017-10-02T04:06:05.835Z,47.93
2017-10-02T04:08:33.572Z,45.80
2017-10-02T04:11:01.426Z,44.73
2017-10-02T04:13:30.142Z,45.30
2017-10-02T04:15:57.894Z,45.27
2017-10-02T04:18:25.784Z,45.23
2017-10-02T04:20:53.628Z,46.53
2017-10-02T04:23:21.367Z,52.43
2017-10-02T04:25:49.190Z,48.37
2017-10-02T04:28:17.115Z,47.27
2017-10-02T04:30:44.952Z,49.40
2017-10-02T04:33:12.699Z,50.07
2017-10-02T04:35:40.462Z,48.30
2017-10-02T04:38:08.300Z,50.53
2017-10-02T04:40:36.893Z,51.50
2017-10-02T04:43:04.734Z,51.40
2017-10-02T04:45:33.288Z,54.50
2017-10-02T04:48:01.082Z,53.00
2017-10-02T04:50:28.916Z,54.37
2017-10-02T04:52:57.512Z,55.27
2017-10-02T04:55:25.330Z,55.43
2017-10-02T04:57:53.120Z,56.43
2017-10-02T05:00:20.951Z,56.80
2017-10-02T05:02:49.454Z,53.43
2017-10-02T05:05:17.308Z,55.63
2017-10-02T05:07:45.673Z,49.27
2017-10-02T05:10:13.489Z,51.43
2017-10-02T05:12:41.279Z,50.80
2017-10-02T05:15:09.106Z,48.97
2017-10-02T05:17:36.906Z,48.13
2017-10-02T05:20:04.715Z,51.90
2017-10-02T05:22:32.545Z,50.87
2017-10-02T05:25:00.438Z,50.37
2017-10-02T05:27:28.190Z,48.93
2017-10-02T05:29:56.006Z,58.40
2017-10-02T05:32:24.602Z,49.30
2017-10-02T05:34:52.401Z,49.30
2017-10-02T05:37:20.154Z,50.57
2017-10-02T05:39:47.928Z,48.37
2017-10-02T05:42:15.751Z,52.67
2017-10-02T05:44:44.338Z,44.60
2017-10-02T05:47:12.086Z,50.43
2017-10-02T05:49:39.899Z,46.80
2017-10-02T05:52:07.664Z,50.73
2017-10-02T05:54:35.416Z,47.07
2017-10-02T05:57:03.168Z,50.90
2017-10-02T05:59:31.003Z,54.67
2017-10-02T06:01:58.779Z,50.80
2017-10-02T06:04:26.528Z,49.83
2017-10-02T06:06:54.298Z,54.33
2017-10-02T06:09:22.038Z,49.43
2017-10-02T06:11:49.777Z,47.97
2017-10-02T06:14:17.653Z,64.07
2017-10-02T06:16:45.389Z,54.53
2017-10-02T06:19:13.190Z,49.97
2017-10-02T06:21:41.010Z,47.23
2017-10-02T06:24:08.819Z,50.57
2017-10-02T06:26:36.627Z,52.33
2017-10-02T06:29:04.474Z,50.67
2017-10-02T06:31:32.262Z,60.33
2017-10-02T06:34:00.080Z,51.87
2017-10-02T06:36:28.677Z,52.33
2017-10-02T06:38:56.485Z,48.27
2017-10-02T06:41:24.235Z,58.07
2017-10-02T06:43:52.026Z,50.33
2017-10-02T06:46:19.781Z,51.27
2017-10-02T06:48:47.583Z,48.93
2017-10-02T06:51:15.423Z,46.47
2017-10-02T06:53:43.232Z,49.47
2017-10-02T06:56:11.048Z,47.60
2017-10-02T06:58:38.882Z,48.00
2017-10-02T07:01:06.642Z,43.43
2017-10-02T07:03:34.452Z,50.20
2017-10-02T07:06:02.344Z,42.00
2017-10-02T07:08:30.113Z,44.00
2017-10-02T07:10:57.947Z,42.00
2017-10-02T07:13:25.771Z,38.97
2017-10-02T07:15:53.517Z,45.20
2017-10-02T07:18:21.301Z,42.33
2017-10-02T07:20:49.119Z,39.80
2017-10-02T07:23:16.920Z,38.70
2017-10-02T07:25:44.676Z,38.77
2017-10-02T07:28:12.501Z,39.50
2017-10-02T07:30:40.259Z,40.63
2017-10-02T07:33:08.004Z,44.83
2017-10-02T07:35:35.865Z,40.10
2017-10-02T07:38:03.654Z,45.37
2017-10-02T07:40:31.450Z,36.17
2017-10-02T07:42:59.208Z,32.83
2017-10-02T07:45:26.960Z,36.20
2017-10-02T07:47:54.759Z,33.20
2017-10-02T07:50:22.544Z,33.97
2017-10-02T07:52:50.356Z,37.13
2017-10-02T07:55:18.140Z,27.93
2017-10-02T07:57:46.020Z,32.97
2017-10-02T08:00:13.829Z,30.67
2017-10-02T08:02:41.622Z,27.47
2017-10-02T08:05:09.380Z,33.10
2017-10-02T08:07:37.178Z,28.27
2017-10-02T08:10:04.975Z,29.37
2017-10-02T08:12:32.796Z,27.03
2017-10-02T08:15:00.618Z,30.07
2017-10-02T08:17:28.379Z,33.87
2017-10-02T08:19:56.195Z,33.77
2017-10-02T08:22:24.710Z,30.40
2017-10-02T08:24:52.523Z,25.90
2017-10-02T08:27:20.434Z,29.03
2017-10-02T08:29:48.202Z,31.03
2017-10-02T08:32:16.027Z,27.63
2017-10-02T08:34:43.870Z,27.60
2017-10-02T08:37:11.696Z,32.77
2017-10-02T08:39:39.435Z,30.57
2017-10-02T08:42:07.203Z,30.20
2017-10-02T08:44:35.015Z,28.93
2017-10-02T08:47:02.810Z,26.33
2017-10-02T08:49:30.645Z,26.17
2017-10-02T08:51:58.373Z,25.83
2017-10-02T08:54:26.174Z,33.37
2017-10-02T08:56:54.078Z,31.53
2017-10-02T08:59:21.814Z,27.13
2017-10-02T09:01:49.576Z,32.73
2017-10-02T09:04:17.397Z,30.13
2017-10-02T09:06:45.197Z,27.17
2017-10-02T09:09:13.014Z,34.23
2017-10-02T09:11:40.931Z,23.40
2017-10-02T09:14:08.682Z,20.60
2017-10-02T09:16:36.499Z,24.53
2017-10-02T09:19:04.374Z,19.50
2017-10-02T09:21:32.136Z,22.97
2017-10-02T09:23:59.861Z,22.23
2017-10-02T09:26:27.678Z,17.10
2017-10-02T09:28:55.487Z,14.40
2017-10-02T09:31:23.302Z,14.20
2017-10-02T09:33:51.167Z,20.93
2017-10-02T09:36:19.159Z,19.30
2017-10-02T09:38:46.930Z,17.27
2017-10-02T09:41:14.688Z,19.10
2017-10-02T09:43:42.430Z,17.10
2017-10-02T09:46:10.212Z,18.67
2017-10-02T09:48:38.007Z,19.47
2017-10-02T09:51:05.756Z,16.57
2017-10-02T09:53:33.479Z,21.00
2017-10-02T09:56:01.989Z,19.80
2017-10-02T09:58:29.787Z,20.47
2017-10-02T10:00:57.587Z,19.73
2017-10-02T10:03:25.336Z,17.10
2017-10-02T10:05:53.117Z,17.73
2017-10-02T10:08:20.915Z,18.37
2017-10-02T10:10:48.718Z,20.50
2017-10-02T10:13:16.467Z,19.77
2017-10-02T10:15:44.276Z,18.10
2017-10-02T10:18:12.184Z,17.23
2017-10-02T10:20:39.928Z,19.20
2017-10-02T10:23:07.672Z,17.70
2017-10-02T10:25:35.503Z,17.57
2017-10-02T10:28:03.308Z,17.23
2017-10-02T10:30:31.079Z,15.97
2017-10-02T10:32:58.955Z,15.23
2017-10-02T10:35:27.560Z,21.90
2017-10-02T10:37:55.426Z,17.60
2017-10-02T10:40:23.951Z,19.10
2017-10-02T10:42:51.692Z,17.90
2017-10-02T10:45:19.433Z,17.93
2017-10-02T10:47:47.225Z,16.90
2017-10-02T10:50:14.950Z,30.47
2017-10-02T10:52:42.755Z,21.00
2017-10-02T10:55:10.506Z,19.37
2017-10-02T10:57:38.265Z,17.70
2017-10-02T11:00:06.192Z,20.40
2017-10-02T11:02:33.992Z,17.53
2017-10-02T11:05:01.795Z,18.63
2017-10-02T11:07:29.630Z,16.67
2017-10-02T11:09:57.383Z,21.90
2017-10-02T11:12:25.128Z,16.80
2017-10-02T11:14:53.038Z,17.40
2017-10-02T11:17:20.860Z,17.43
2017-10-02T11:19:48.590Z,20.00
2017-10-02T11:22:16.489Z,18.30
2017-10-02T11:24:44.241Z,15.90
2017-10-02T11:27:12.088Z,20.50
2017-10-02T11:29:39.988Z,19.00
2017-10-02T11:32:07.836Z,22.57
2017-10-02T11:34:36.489Z,17.63
2017-10-02T11:37:04.313Z,20.77
2017-10-02T11:39:32.114Z,15.77
2017-10-02T11:41:59.950Z,17.07
2017-10-02T11:44:27.772Z,19.03
2017-10-02T11:46:55.689Z,20.23
2017-10-02T11:49:23.523Z,18.00
2017-10-02T11:51:52.161Z,18.60
2017-10-02T11:54:19.894Z,20.00
2017-10-02T11:56:47.712Z,16.57
2017-10-02T11:59:15.515Z,17.67
2017-10-02T12:01:43.290Z,18.57
2017-10-02T12:04:11.039Z,18.67
2017-10-02T12:06:38.893Z,20.17
2017-10-02T12:09:06.715Z,17.80
2017-10-02T12:11:34.618Z,19.30
2017-10-02T12:14:02.517Z,16.30
2017-10-02T12:16:30.324Z,20.70
2017-10-02T12:18:59.723Z,22.17
2017-10-02T12:21:27.468Z,19.10
2017-10-02T12:23:55.995Z,18.50
2017-10-02T12:26:23.787Z,19.27
2017-10-02T12:28:51.602Z,20.03
2017-10-02T12:31:19.359Z,16.93
2017-10-02T12:33:48.822Z,17.40
2017-10-02T12:36:16.638Z,18.50
2017-10-02T12:38:44.495Z,18.40
2017-10-02T12:41:18.165Z,19.40
2017-10-02T12:43:45.923Z,18.47
2017-10-02T12:46:13.735Z,24.93
2017-10-02T12:48:42.354Z,18.37
2017-10-02T12:51:10.101Z,17.80
2017-10-02T12:53:38.685Z,16.33
2017-10-02T12:56:06.521Z,19.87
2017-10-02T12:58:34.321Z,25.70
2017-10-02T13:01:02.123Z,20.03
2017-10-02T13:03:29.925Z,18.90
2017-10-02T13:05:57.731Z,18.50
2017-10-02T13:08:25.475Z,16.33
2017-10-02T13:10:54.159Z,18.27
2017-10-02T13:13:21.981Z,18.13
2017-10-02T13:15:49.930Z,19.73
2017-10-02T13:18:18.385Z,19.13
2017-10-02T13:20:46.972Z,19.10
2017-10-02T13:23:14.730Z,19.37
2017-10-02T13:25:42.452Z,19.70
2017-10-02T13:28:10.194Z,17.97
2017-10-02T13:30:37.971Z,18.73
2017-10-02T13:33:05.772Z,20.30
2017-10-02T13:35:33.596Z,19.23
2017-10-02T13:38:01.504Z,16.93
2017-10-02T13:40:29.293Z,18.50
2017-10-02T13:42:57.061Z,17.73
2017-10-02T13:45:24.823Z,18.30
2017-10-02T13:47:52.663Z,18.20
2017-10-02T13:50:20.467Z,20.00
2017-10-02T13:52:48.303Z,18.63
2017-10-02T13:55:16.050Z,18.20
2017-10-02T13:57:43.799Z,17.37
2017-10-02T14:00:11.607Z,19.70
2017-10-02T14:02:39.342Z,21.30
2017-10-02T14:05:07.116Z,15.80
2017-10-02T14:07:34.967Z,19.03
2017-10-02T14:10:02.802Z,19.47
2017-10-02T14:12:30.630Z,17.83
2017-10-02T14:14:58.475Z,15.10
2017-10-02T14:17:26.293Z,17.10
2017-10-02T14:19:54.105Z,15.67
2017-10-02T14:22:22.082Z,16.73
2017-10-02T14:24:49.880Z,15.83
2017-10-02T14:27:17.751Z,18.60
2017-10-02T14:29:45.588Z,18.33
2017-10-02T14:32:13.338Z,17.70
2017-10-02T14:34:41.187Z,21.60
2017-10-02T14:37:09.145Z,17.97
2017-10-02T14:39:36.942Z,18.50
2017-10-02T14:42:05.438Z,26.83
2017-10-02T14:44:34.162Z,18.20
2017-10-02T14:47:02.060Z,21.80
2017-10-02T14:49:32.616Z,18.57
2017-10-02T14:52:00.491Z,18.40
2017-10-02T14:54:29.107Z,18.23
2017-10-02T14:56:56.874Z,17.13
2017-10-02T14:59:24.706Z,18.13
2017-10-02T15:01:53.298Z,27.20
2017-10-02T15:04:21.177Z,21.27
2017-10-02T15:06:48.937Z,16.97
2017-10-02T15:09:17.600Z,15.90
2017-10-02T15:11:45.421Z,14.70
2017-10-02T15:14:13.212Z,18.60
2017-10-02T15:16:41.052Z,14.80
2017-10-02T15:19:08.940Z,18.17
2017-10-02T15:21:36.692Z,17.60
2017-10-02T15:24:04.595Z,16.93
2017-10-02T15:26:32.354Z,12.60
2017-10-02T15:29:00.099Z,13.93
2017-10-02T15:31:27.935Z,16.43
2017-10-02T15:33:56.514Z,13.50
2017-10-02T15:36:25.051Z,14.50
2017-10-02T15:38:52.872Z,15.70
2017-10-02T15:41:20.694Z,18.30
2017-10-02T15:43:48.447Z,17.03
2017-10-02T15:46:16.259Z,14.13
2017-10-02T15:48:44.040Z,17.30
2017-10-02T15:51:12.590Z,14.33
2017-10-02T15:53:40.398Z,13.60
2017-10-02T15:56:08.226Z,14.63
2017-10-02T15:58:36.156Z,16.03
2017-10-02T16:01:04.056Z,13.23
2017-10-02T16:03:31.892Z,14.53
2017-10-02T16:05:59.817Z,15.53
2017-10-02T16:08:27.550Z,18.33
2017-10-02T16:10:55.302Z,13.10
2017-10-02T16:13:23.247Z,15.07
2017-10-02T16:15:50.990Z,14.40
2017-10-02T16:18:18.791Z,14.50
2017-10-02T16:20:46.708Z,23.63
2017-10-02T16:23:14.464Z,17.97
2017-10-02T16:25:42.239Z,16.73
2017-10-02T16:28:10.038Z,15.47
2017-10-02T16:30:37.941Z,17.40
2017-10-02T16:33:05.733Z,15.80
2017-10-02T16:35:33.496Z,15.30
2017-10-02T16:38:01.259Z,18.57
2017-10-02T16:40:29.006Z,16.20
2017-10-02T16:42:56.827Z,14.83
2017-10-02T16:45:24.622Z,25.63
2017-10-02T16:47:52.420Z,20.90
2017-10-02T16:50:20.255Z,17.20
2017-10-02T16:52:48.051Z,20.90
2017-10-02T16:55:15.849Z,22.00
2017-10-02T16:57:43.702Z,19.80
2017-10-02T17:00:11.555Z,15.30
2017-10-02T17:02:39.292Z,17.40
2017-10-02T17:05:07.819Z,22.90
2017-10-02T17:07:35.578Z,29.93
2017-10-02T17:10:03.341Z,15.80
2017-10-02T17:12:31.208Z,15.13
2017-10-02T17:14:58.946Z,19.03
2017-10-02T17:17:27.477Z,16.30
2017-10-02T17:19:55.230Z,17.20
2017-10-02T17:22:23.014Z,17.93
2017-10-02T17:24:50.832Z,18.57
2017-10-02T17:27:19.346Z,18.30
2017-10-02T17:29:47.105Z,16.53
2017-10-02T17:32:15.600Z,22.00
2017-10-02T17:34:43.416Z,17.37
2017-10-02T17:37:11.259Z,19.10
2017-10-02T17:39:39.053Z,20.13
2017-10-02T17:42:06.885Z,16.10
2017-10-02T17:44:35.358Z,19.10
2017-10-02T17:47:03.128Z,23.13
2017-10-02T17:49:30.945Z,17.33
2017-10-02T17:51:59.761Z,19.80
2017-10-02T17:54:27.520Z,17.87
2017-10-02T17:56:55.318Z,17.30
2017-10-02T17:59:23.100Z,17.00
2017-10-02T18:01:51.113Z,16.80
2017-10-02T18:04:19.099Z,17.10
2017-10-02T18:06:48.484Z,15.87
2017-10-02T18:09:16.299Z,18.50
2017-10-02T18:11:46.142Z,16.03
2017-10-02T18:14:14.894Z,16.20
2017-10-02T18:16:43.698Z,15.43
2017-10-02T18:19:11.492Z,15.67
2017-10-02T18:21:40.178Z,17.20
2017-10-02T18:24:07.995Z,16.20
2017-10-02T18:26:35.754Z,16.10
2017-10-02T18:29:03.803Z,17.07
2017-10-02T18:31:31.590Z,18.17
2017-10-02T18:33:59.394Z,17.20
2017-10-02T18:36:27.279Z,18.53
2017-10-02T18:38:55.091Z,17.43
2017-10-02T18:41:23.701Z,20.47
2017-10-02T18:43:51.948Z,16.00
2017-10-02T18:46:19.747Z,19.80
2017-10-02T18:48:47.557Z,17.27
2017-10-02T18:51:15.442Z,22.83
2017-10-02T18:53:43.224Z,19.90
2017-10-02T18:56:11.799Z,22.73
2017-10-02T18:58:39.593Z,17.87
2017-10-02T19:01:07.411Z,20.53
2017-10-02T19:03:35.227Z,20.70
2017-10-02T19:06:05.932Z,17.30
2017-10-02T19:08:33.762Z,24.83
2017-10-02T19:11:02.732Z,17.30
2017-10-02T19:13:31.515Z,17.50
2017-10-02T19:15:59.797Z,22.60
2017-10-02T19:18:28.877Z,18.57
2017-10-02T19:20:57.935Z,22.20
2017-10-02T19:23:27.277Z,21.73
2017-10-02T19:25:56.456Z,19.57
2017-10-02T19:28:25.480Z,20.17
2017-10-02T19:30:54.366Z,23.57
2017-10-02T19:33:23.843Z,21.10
2017-10-02T19:35:53.380Z,18.30
2017-10-02T19:38:22.625Z,19.37
2017-10-02T19:40:52.664Z,21.90
2017-10-02T19:43:20.746Z,19.60
2017-10-02T19:45:50.542Z,21.23
2017-10-02T19:48:20.123Z,23.53
2017-10-02T19:50:48.665Z,24.67
2017-10-02T19:53:17.817Z,21.57
2017-10-02T19:55:46.104Z,19.67
2017-10-02T19:58:15.143Z,23.40
2017-10-02T20:00:44.532Z,21.43
2017-10-02T20:03:13.932Z,22.10
2017-10-02T20:05:41.759Z,21.13
2017-10-02T20:08:09.669Z,21.83
2017-10-02T20:10:37.551Z,23.60
2017-10-02T20:13:05.298Z,23.93
2017-10-02T20:15:33.880Z,24.33
2017-10-02T20:18:01.736Z,24.90
2017-10-02T20:20:29.604Z,29.40
2017-10-02T20:22:57.460Z,24.37
2017-10-02T20:25:26.042Z,23.47
2017-10-02T20:27:54.394Z,21.17
2017-10-02T20:30:22.571Z,26.77
2017-10-02T20:32:51.639Z,20.50
2017-10-02T20:35:21.674Z,23.70
2017-10-02T20:37:50.302Z,28.37
2017-10-02T20:40:18.145Z,21.30
2017-10-02T20:42:45.895Z,23.10
2017-10-02T20:45:13.763Z,21.57
2017-10-02T20:47:41.598Z,25.73
2017-10-02T20:50:09.391Z,24.13
2017-10-02T20:52:37.216Z,24.80
2017-10-02T20:55:05.127Z,22.53
2017-10-02T20:57:32.937Z,20.23
2017-10-02T21:00:01.475Z,22.50
2017-10-02T21:02:29.469Z,24.43
2017-10-02T21:04:57.247Z,24.67
2017-10-02T21:07:24.995Z,21.13
2017-10-02T21:09:52.856Z,23.70
2017-10-02T21:12:21.531Z,24.03
2017-10-02T21:14:49.339Z,22.20
2017-10-02T21:17:17.079Z,23.53
2017-10-02T21:19:44.918Z,25.30
2017-10-02T21:22:12.829Z,26.67
2017-10-02T21:24:40.724Z,24.13
2017-10-02T21:27:08.533Z,20.40
2017-10-02T21:29:36.292Z,23.47
2017-10-02T21:32:04.119Z,25.10
2017-10-02T21:34:31.904Z,24.77
2017-10-02T21:36:59.655Z,20.47
2017-10-02T21:39:28.172Z,21.87
2017-10-02T21:41:55.967Z,25.70
2017-10-02T21:44:24.375Z,21.23
2017-10-02T21:46:52.178Z,21.33
2017-10-02T21:49:19.934Z,23.40
2017-10-02T21:51:47.723Z,24.40
2017-10-02T21:54:15.609Z,21.77
2017-10-02T21:56:43.346Z,22.00
2017-10-02T21:59:11.131Z,27.50
2017-10-02T22:01:38.954Z,21.30
2017-10-02T22:04:06.697Z,23.80
2017-10-02T22:06:34.455Z,25.20
2017-10-02T22:09:02.294Z,23.97
2017-10-02T22:11:30.033Z,20.27
2017-10-02T22:13:57.780Z,25.27
2017-10-02T22:16:25.618Z,20.37
2017-10-02T22:18:53.445Z,24.20
2017-10-02T22:21:21.267Z,26.57
2017-10-02T22:23:49.171Z,23.90
2017-10-02T22:26:17.669Z,23.60
2017-10-02T22:28:45.462Z,20.23
2017-10-02T22:31:13.284Z,23.40
2017-10-02T22:33:41.879Z,20.83
2017-10-02T22:36:09.851Z,24.00
2017-10-02T22:38:37.715Z,20.03
2017-10-02T22:41:05.504Z,22.67
2017-10-02T22:43:33.310Z,24.90
2017-10-02T22:46:01.180Z,22.13
2017-10-02T22:48:28.928Z,22.93
2017-10-02T22:50:56.724Z,23.27
2017-10-02T22:53:24.626Z,24.80
2017-10-02T22:55:52.391Z,23.83
2017-10-02T22:58:20.212Z,22.20
2017-10-02T23:00:48.007Z,21.17
2017-10-02T23:03:15.749Z,20.03
2017-10-02T23:05:43.576Z,23.37
2017-10-02T23:08:11.473Z,20.90
2017-10-02T23:10:39.202Z,20.63
2017-10-02T23:13:06.992Z,21.00
2017-10-02T23:15:34.774Z,20.20
2017-10-02T23:18:02.569Z,19.83
2017-10-02T23:20:30.342Z,19.17
2017-10-02T23:22:58.157Z,19.73
2017-10-02T23:25:25.895Z,21.40
2017-10-02T23:27:53.653Z,20.40
2017-10-02T23:30:21.419Z,21.50
2017-10-02T23:32:49.237Z,20.13
2017-10-02T23:35:17.032Z,18.73
2017-10-02T23:37:44.853Z,19.37
2017-10-02T23:40:12.646Z,18.97
2017-10-02T23:42:40.449Z,18.80
2017-10-02T23:45:08.294Z,19.03
2017-10-02T23:47:36.043Z,20.40
2017-10-02T23:50:03.809Z,18.93
2017-10-02T23:52:31.557Z,19.43
2017-10-02T23:54:59.379Z,18.43
2017-10-02T23:57:27.183Z,19.17
2017-10-02T23:59:55.066Z,19.40
